createdAt,value
2018-06-11T00:01:26.217Z,5.53
2018-06-11T00:03:54.314Z,5.80
2018-06-11T00:06:22.427Z,6.23
2018-06-11T00:08:50.587Z,5.83
2018-06-11T00:11:18.716Z,6.60
2018-06-11T00:13:46.863Z,5.60
2018-06-11T00:16:14.971Z,6.40
2018-06-11T00:18:43.967Z,6.60
2018-06-11T00:21:12.091Z,6.03
2018-06-11T00:23:40.204Z,5.90
2018-06-11T00:26:08.307Z,5.40
2018-06-11T00:28:36.394Z,5.70
2018-06-11T00:31:04.520Z,5.50
2018-06-11T00:33:32.608Z,6.23
2018-06-11T00:36:00.776Z,5.90
2018-06-11T00:38:28.869Z,5.80
2018-06-11T00:40:57.020Z,5.13
2018-06-11T00:43:25.575Z,5.80
2018-06-11T00:45:53.724Z,5.77
2018-06-11T00:48:21.856Z,5.77
2018-06-11T00:50:49.980Z,6.83
2018-06-11T00:53:18.367Z,6.50
2018-06-11T00:55:57.943Z,5.73
2018-06-11T00:58:26.320Z,6.40
2018-06-11T01:00:54.908Z,6.63
2018-06-11T01:03:22.996Z,6.47
2018-06-11T01:05:51.119Z,7.17
2018-06-11T01:08:19.215Z,6.23
2018-06-11T01:10:48.290Z,5.87
2018-06-11T01:13:16.383Z,6.37
2018-06-11T01:15:44.491Z,6.47
2018-06-11T01:18:12.615Z,6.60
2018-06-11T01:20:40.829Z,6.10
2018-06-11T01:23:09.038Z,6.03
2018-06-11T01:25:37.157Z,6.27
2018-06-11T01:28:05.553Z,6.70
2018-06-11T01:30:33.686Z,6.73
2018-06-11T01:33:01.805Z,6.43
2018-06-11T01:35:30.027Z,6.80
2018-06-11T01:37:58.121Z,6.40
2018-06-11T01:40:26.318Z,6.37
2018-06-11T01:42:55.312Z,7.07
2018-06-11T01:45:23.424Z,6.20
2018-06-11T01:47:52.399Z,6.43
2018-06-11T01:50:20.525Z,7.20
2018-06-11T01:52:48.664Z,6.03
2018-06-11T01:55:16.766Z,6.50
2018-06-11T01:57:44.983Z,7.10
2018-06-11T02:00:13.134Z,7.07
2018-06-11T02:02:41.240Z,6.93
2018-06-11T02:05:09.344Z,7.40
2018-06-11T02:07:37.455Z,7.30
2018-06-11T02:10:05.543Z,7.63
2018-06-11T02:12:33.679Z,6.53
2018-06-11T02:15:01.804Z,7.80
2018-06-11T02:17:30.063Z,7.57
2018-06-11T02:19:58.272Z,7.93
2018-06-11T02:22:26.783Z,6.87
2018-06-11T02:24:54.885Z,8.80
2018-06-11T02:27:23.007Z,7.70
2018-06-11T02:29:51.104Z,7.30
2018-06-11T02:32:19.251Z,8.00
2018-06-11T02:34:48.183Z,7.83
2018-06-11T02:37:16.336Z,8.27
2018-06-11T02:39:45.674Z,7.27
2018-06-11T02:42:14.647Z,7.70
2018-06-11T02:44:43.067Z,7.73
2018-06-11T02:47:11.186Z,8.10
2018-06-11T02:49:39.284Z,7.50
2018-06-11T02:52:07.431Z,8.20
2018-06-11T02:54:36.064Z,7.43
2018-06-11T02:57:04.209Z,7.30
2018-06-11T02:59:32.553Z,7.13
2018-06-11T03:02:00.700Z,6.60
2018-06-11T03:04:28.819Z,7.10
2018-06-11T03:06:56.979Z,8.00
2018-06-11T03:09:25.088Z,8.10
2018-06-11T03:11:53.228Z,7.33
2018-06-11T03:14:21.332Z,7.37
2018-06-11T03:16:49.452Z,6.63
2018-06-11T03:19:17.556Z,7.13
2018-06-11T03:21:45.677Z,7.27
2018-06-11T03:24:13.796Z,7.60
2018-06-11T03:26:42.983Z,7.40
2018-06-11T03:29:11.077Z,7.17
2018-06-11T03:31:39.651Z,6.50
2018-06-11T03:34:08.011Z,6.93
2018-06-11T03:36:36.129Z,7.57
2018-06-11T03:39:06.583Z,7.47
2018-06-11T03:41:34.996Z,7.03
2018-06-11T03:44:03.433Z,8.20
2018-06-11T03:46:32.082Z,7.70
2018-06-11T03:49:00.663Z,7.27
2018-06-11T03:51:29.093Z,7.30
2018-06-11T03:53:57.536Z,7.70
2018-06-11T03:56:25.632Z,7.13
2018-06-11T03:58:54.580Z,7.50
2018-06-11T04:01:22.864Z,7.43
2018-06-11T04:03:51.396Z,7.93
2018-06-11T04:06:19.499Z,7.60
2018-06-11T04:08:48.428Z,8.07
2018-06-11T04:11:16.858Z,7.80
2018-06-11T04:13:45.488Z,8.80
2018-06-11T04:16:14.237Z,7.10
2018-06-11T04:18:42.388Z,7.17
2018-06-11T04:21:10.772Z,6.80
2018-06-11T04:23:38.907Z,7.60
2018-06-11T04:26:07.016Z,8.10
2018-06-11T04:28:35.460Z,7.20
2018-06-11T04:31:03.888Z,7.60
2018-06-11T04:33:32.324Z,7.03
2018-06-11T04:36:01.216Z,7.53
2018-06-11T04:38:29.639Z,7.00
2018-06-11T04:40:58.072Z,7.63
2018-06-11T04:43:27.083Z,7.03
2018-06-11T04:45:55.491Z,8.20
2018-06-11T04:48:23.956Z,6.63
2018-06-11T04:50:52.397Z,7.87
2018-06-11T04:53:20.939Z,8.17
2018-06-11T04:55:49.392Z,8.30
2018-06-11T04:58:17.827Z,8.50
2018-06-11T05:00:46.232Z,11.23
2018-06-11T05:03:14.669Z,8.60
2018-06-11T05:05:43.776Z,8.90
2018-06-11T05:08:13.408Z,9.87
2018-06-11T05:10:41.825Z,8.93
2018-06-11T05:13:10.511Z,8.10
2018-06-11T05:15:40.029Z,10.50
2018-06-11T05:18:08.415Z,9.53
2018-06-11T05:20:38.168Z,10.00
2018-06-11T05:23:06.590Z,10.40
2018-06-11T05:25:35.083Z,10.33
2018-06-11T05:28:03.887Z,11.03
2018-06-11T05:30:32.539Z,10.00
2018-06-11T05:33:01.869Z,9.80
2018-06-11T05:35:30.717Z,11.40
2018-06-11T05:37:59.521Z,11.03
2018-06-11T05:40:28.053Z,13.03
2018-06-11T05:42:57.695Z,11.00
2018-06-11T05:45:26.200Z,10.77
2018-06-11T05:47:54.958Z,10.60
2018-06-11T05:50:24.516Z,11.40
2018-06-11T05:52:52.934Z,12.30
2018-06-11T05:55:21.549Z,12.80
2018-06-11T05:57:49.962Z,11.80
2018-06-11T06:00:18.914Z,12.67
2018-06-11T06:02:47.320Z,12.20
2018-06-11T06:05:16.191Z,10.13
2018-06-11T06:07:45.568Z,12.87
2018-06-11T06:10:14.016Z,10.03
2018-06-11T06:12:42.420Z,11.20
2018-06-11T06:15:11.752Z,11.33
2018-06-11T06:17:40.363Z,11.23
2018-06-11T06:20:08.896Z,11.87
2018-06-11T06:22:38.009Z,13.00
2018-06-11T06:25:06.448Z,11.50
2018-06-11T06:27:34.860Z,11.43
2018-06-11T06:30:03.300Z,12.23
2018-06-11T06:32:32.493Z,11.80
2018-06-11T06:35:01.535Z,11.80
2018-06-11T06:37:30.976Z,11.40
2018-06-11T06:39:59.384Z,11.10
2018-06-11T06:42:27.822Z,13.00
2018-06-11T06:44:56.878Z,11.87
2018-06-11T06:47:25.517Z,10.57
2018-06-11T06:49:54.476Z,11.40
2018-06-11T06:52:22.899Z,11.70
2018-06-11T06:54:52.263Z,12.30
2018-06-11T06:57:20.889Z,12.00
2018-06-11T06:59:53.100Z,10.27
2018-06-11T07:02:21.817Z,9.60
2018-06-11T07:04:51.532Z,10.90
2018-06-11T07:07:20.678Z,10.47
2018-06-11T07:09:49.267Z,9.70
2018-06-11T07:12:17.394Z,9.70
2018-06-11T07:14:45.765Z,10.87
2018-06-11T07:17:13.880Z,9.77
2018-06-11T07:19:42.495Z,9.43
2018-06-11T07:22:11.289Z,9.47
2018-06-11T07:24:39.691Z,9.70
2018-06-11T07:27:08.755Z,10.00
2018-06-11T07:29:37.638Z,8.90
2018-06-11T07:32:07.009Z,9.90
2018-06-11T07:34:35.701Z,8.90
2018-06-11T07:37:05.208Z,8.73
2018-06-11T07:39:34.501Z,8.73
2018-06-11T07:42:02.909Z,8.97
2018-06-11T07:44:32.335Z,8.80
2018-06-11T07:47:01.536Z,8.43
2018-06-11T07:49:29.921Z,8.57
2018-06-11T07:51:59.050Z,7.77
2018-06-11T07:54:27.680Z,9.07
2018-06-11T07:56:57.532Z,8.90
2018-06-11T07:59:25.912Z,9.97
2018-06-11T08:01:54.335Z,8.33
2018-06-11T08:04:23.407Z,8.80
2018-06-11T08:06:52.039Z,8.80
2018-06-11T08:09:20.451Z,8.70
2018-06-11T08:11:48.828Z,9.80
2018-06-11T08:14:17.187Z,9.23
2018-06-11T08:16:45.592Z,8.87
2018-06-11T08:19:14.119Z,9.03
2018-06-11T08:21:42.517Z,9.07
2018-06-11T08:24:12.207Z,8.87
2018-06-11T08:26:40.592Z,8.20
2018-06-11T08:29:08.691Z,8.27
2018-06-11T08:31:37.097Z,9.10
2018-06-11T08:34:05.591Z,8.27
2018-06-11T08:36:34.400Z,8.80
2018-06-11T08:39:09.013Z,7.80
2018-06-11T08:41:37.451Z,8.13
2018-06-11T08:44:09.063Z,9.13
2018-06-11T08:46:39.001Z,7.30
2018-06-11T08:49:08.085Z,7.37
2018-06-11T08:51:36.850Z,9.13
2018-06-11T08:54:06.296Z,8.03
2018-06-11T08:56:34.734Z,7.90
2018-06-11T08:59:03.115Z,8.10
2018-06-11T09:01:31.541Z,7.83
2018-06-11T09:04:00.168Z,8.13
2018-06-11T09:06:29.060Z,8.27
2018-06-11T09:08:57.491Z,8.33
2018-06-11T09:11:26.510Z,8.63
2018-06-11T09:13:55.131Z,7.80
2018-06-11T09:16:23.549Z,8.47
2018-06-11T09:18:52.013Z,8.27
2018-06-11T09:21:20.832Z,7.73
2018-06-11T09:23:50.437Z,7.53
2018-06-11T09:26:19.339Z,7.33
2018-06-11T09:28:49.548Z,7.43
2018-06-11T09:31:18.446Z,8.07
2018-06-11T09:33:48.257Z,7.83
2018-06-11T09:36:17.348Z,7.97
2018-06-11T09:38:46.540Z,6.77
2018-06-11T09:41:15.352Z,7.43
2018-06-11T09:43:44.036Z,6.57
2018-06-11T09:46:13.116Z,6.93
2018-06-11T09:48:42.181Z,7.00
2018-06-11T09:51:11.564Z,8.23
2018-06-11T09:53:39.936Z,7.20
2018-06-11T09:56:08.392Z,8.00
2018-06-11T09:58:38.099Z,7.80
2018-06-11T10:01:07.318Z,8.23
2018-06-11T10:03:36.445Z,6.53
2018-06-11T10:06:04.740Z,7.20
2018-06-11T10:08:32.940Z,7.03
2018-06-11T10:11:02.769Z,6.80
2018-06-11T10:13:31.196Z,6.60
2018-06-11T10:15:59.579Z,6.50
2018-06-11T10:18:27.766Z,7.50
2018-06-11T10:20:56.156Z,6.07
2018-06-11T10:23:25.028Z,6.87
2018-06-11T10:25:53.199Z,6.80
2018-06-11T10:28:21.370Z,6.00
2018-06-11T10:30:49.535Z,6.20
2018-06-11T10:33:18.645Z,6.63
2018-06-11T10:35:47.007Z,6.23
2018-06-11T10:38:15.202Z,7.90
2018-06-11T10:40:44.934Z,4.83
2018-06-11T10:43:13.343Z,5.53
2018-06-11T10:45:41.922Z,6.53
2018-06-11T10:48:11.051Z,5.50
2018-06-11T10:50:39.204Z,5.13
2018-06-11T10:53:07.659Z,5.60
2018-06-11T10:55:36.528Z,5.77
2018-06-11T10:58:05.135Z,5.60
2018-06-11T11:00:33.291Z,6.10
2018-06-11T11:03:01.691Z,5.00
2018-06-11T11:05:29.851Z,5.70
2018-06-11T11:07:58.020Z,5.67
2018-06-11T11:10:26.167Z,5.03
2018-06-11T11:12:54.655Z,6.27
2018-06-11T11:15:23.189Z,5.57
2018-06-11T11:17:51.371Z,5.73
2018-06-11T11:20:20.424Z,5.43
2018-06-11T11:22:48.845Z,5.73
2018-06-11T11:25:17.010Z,5.13
2018-06-11T11:27:46.286Z,5.97
2018-06-11T11:30:14.809Z,6.10
2018-06-11T11:32:42.962Z,5.70
2018-06-11T11:35:12.034Z,5.83
2018-06-11T11:37:40.559Z,6.03
2018-06-11T11:40:08.759Z,5.80
2018-06-11T11:42:38.702Z,5.97
2018-06-11T11:45:07.075Z,6.13
2018-06-11T11:47:35.962Z,5.57
2018-06-11T11:50:04.174Z,5.97
2018-06-11T11:52:32.534Z,5.77
2018-06-11T11:55:00.716Z,5.63
2018-06-11T11:57:29.778Z,5.73
2018-06-11T11:59:57.976Z,5.50
2018-06-11T12:02:26.795Z,5.50
2018-06-11T12:04:54.967Z,6.20
2018-06-11T12:07:23.492Z,5.67
2018-06-11T12:09:51.659Z,5.70
2018-06-11T12:12:19.811Z,5.20
2018-06-11T12:14:47.982Z,5.40
2018-06-11T12:17:17.164Z,5.50
2018-06-11T12:19:45.564Z,5.10
2018-06-11T12:22:13.724Z,5.53
2018-06-11T12:24:41.908Z,5.27
2018-06-11T12:27:10.895Z,5.77
2018-06-11T12:29:39.137Z,5.50
2018-06-11T12:32:07.302Z,5.60
2018-06-11T12:34:35.487Z,4.37
2018-06-11T12:37:03.639Z,4.80
2018-06-11T12:39:31.823Z,4.60
2018-06-11T12:42:00.907Z,4.57
2018-06-11T12:44:29.568Z,4.77
2018-06-11T12:46:57.727Z,4.27
2018-06-11T12:49:26.164Z,4.77
2018-06-11T12:51:55.051Z,5.77
2018-06-11T12:54:23.208Z,5.23
2018-06-11T12:56:51.345Z,5.03
2018-06-11T12:59:19.504Z,5.43
2018-06-11T13:01:48.135Z,5.30
2018-06-11T13:04:16.359Z,5.90
2018-06-11T13:06:44.471Z,4.63
2018-06-11T13:09:12.636Z,5.20
2018-06-11T13:11:41.019Z,5.27
2018-06-11T13:14:09.184Z,4.50
2018-06-11T13:16:37.320Z,5.60
2018-06-11T13:19:06.419Z,5.90
2018-06-11T13:21:34.576Z,6.30
2018-06-11T13:24:02.691Z,6.40
2018-06-11T13:26:30.835Z,6.17
2018-06-11T13:28:58.981Z,6.40
2018-06-11T13:31:27.403Z,6.60
2018-06-11T13:33:57.263Z,5.77
2018-06-11T13:36:25.443Z,5.60
2018-06-11T13:38:53.838Z,9.07
2018-06-11T13:41:22.242Z,7.20
2018-06-11T13:43:50.991Z,6.33
2018-06-11T13:46:19.420Z,6.70
2018-06-11T13:48:48.009Z,6.30
2018-06-11T13:51:16.182Z,7.20
2018-06-11T13:53:44.437Z,7.07
2018-06-11T13:56:12.855Z,6.97
2018-06-11T13:58:41.008Z,7.13
2018-06-11T14:01:09.397Z,6.97
2018-06-11T14:03:37.639Z,6.90
2018-06-11T14:06:05.827Z,7.10
2018-06-11T14:08:36.421Z,7.00
2018-06-11T14:11:04.637Z,6.70
2018-06-11T14:13:32.795Z,7.17
2018-06-11T14:16:02.313Z,7.53
2018-06-11T14:18:30.687Z,6.60
2018-06-11T14:20:58.865Z,7.20
2018-06-11T14:23:28.366Z,6.97
2018-06-11T14:25:56.966Z,6.77
2018-06-11T14:28:25.140Z,6.93
2018-06-11T14:30:54.127Z,8.40
2018-06-11T14:33:22.499Z,7.70
2018-06-11T14:35:51.575Z,7.00
2018-06-11T14:38:19.727Z,6.77
2018-06-11T14:40:48.815Z,7.63
2018-06-11T14:43:16.971Z,6.77
2018-06-11T14:45:46.040Z,7.30
2018-06-11T14:48:14.571Z,9.20
2018-06-11T14:50:42.764Z,7.13
2018-06-11T14:53:10.922Z,5.90
2018-06-11T14:55:40.128Z,6.00
2018-06-11T14:58:08.323Z,7.20
2018-06-11T15:00:37.004Z,6.20
2018-06-11T15:03:05.148Z,6.80
2018-06-11T15:05:34.291Z,6.80
2018-06-11T15:08:02.974Z,6.73
2018-06-11T15:10:31.370Z,6.63
2018-06-11T15:12:59.540Z,6.70
2018-06-11T15:15:27.907Z,6.40
2018-06-11T15:17:56.340Z,6.77
2018-06-11T15:20:24.492Z,8.77
2018-06-11T15:22:53.028Z,7.80
2018-06-11T15:25:21.940Z,8.73
2018-06-11T15:27:51.612Z,7.30
2018-06-11T15:30:20.947Z,8.10
2018-06-11T15:32:50.097Z,11.30
2018-06-11T15:35:18.557Z,9.50
2018-06-11T15:37:47.603Z,8.30
2018-06-11T15:40:16.244Z,9.50
2018-06-11T15:42:45.113Z,9.90
2018-06-11T15:45:14.588Z,11.10
2018-06-11T15:47:43.308Z,13.50
2018-06-11T15:50:12.275Z,10.70
2018-06-11T15:52:42.001Z,11.90
2018-06-11T15:55:10.391Z,11.40
2018-06-11T15:57:39.522Z,14.20
2018-06-11T16:00:08.003Z,12.30
2018-06-11T16:02:37.896Z,11.77
2018-06-11T16:05:06.453Z,11.50
2018-06-11T16:07:34.873Z,11.37
2018-06-11T16:10:03.695Z,9.60
2018-06-11T16:12:32.804Z,7.53
2018-06-11T16:15:01.234Z,5.50
2018-06-11T16:17:30.014Z,4.80
2018-06-11T16:19:59.968Z,4.70
2018-06-11T16:22:28.357Z,4.10
2018-06-11T16:24:57.688Z,4.60
2018-06-11T16:27:27.279Z,4.53
2018-06-11T16:29:56.665Z,3.67
2018-06-11T16:32:25.412Z,4.47
2018-06-11T16:34:53.831Z,4.63
2018-06-11T16:37:22.633Z,4.67
2018-06-11T16:39:51.436Z,4.47
2018-06-11T16:42:20.246Z,4.87
2018-06-11T16:44:49.036Z,4.63
2018-06-11T16:47:18.448Z,4.00
2018-06-11T16:49:47.767Z,4.00
2018-06-11T16:52:16.148Z,4.07
2018-06-11T16:54:44.989Z,3.73
2018-06-11T16:57:13.775Z,3.60
2018-06-11T16:59:42.805Z,3.60
2018-06-11T17:02:11.164Z,4.83
2018-06-11T17:04:39.534Z,4.63
2018-06-11T17:07:07.901Z,4.03
2018-06-11T17:09:36.291Z,4.90
2018-06-11T17:12:04.692Z,5.50
2018-06-11T17:14:33.075Z,4.40
2018-06-11T17:17:01.439Z,4.30
2018-06-11T17:19:29.831Z,3.90
2018-06-11T17:21:58.213Z,5.20
2018-06-11T17:24:26.584Z,3.80
2018-06-11T17:26:54.956Z,4.50
2018-06-11T17:29:23.328Z,4.20
2018-06-11T17:31:51.770Z,4.50
2018-06-11T17:34:20.108Z,4.70
2018-06-11T17:36:48.464Z,3.80
2018-06-11T17:39:16.894Z,3.93
2018-06-11T17:41:45.259Z,3.70
2018-06-11T17:44:13.656Z,3.47
2018-06-11T17:46:42.015Z,3.10
2018-06-11T17:49:10.392Z,3.60
2018-06-11T17:51:38.788Z,3.10
2018-06-11T17:54:09.656Z,2.83
2018-06-11T17:56:38.009Z,3.00
2018-06-11T17:59:06.450Z,3.07
2018-06-11T18:01:34.769Z,3.00
2018-06-11T18:04:03.206Z,3.20
2018-06-11T18:06:31.588Z,3.20
2018-06-11T18:08:59.960Z,3.07
2018-06-11T18:11:28.350Z,3.27
2018-06-11T18:13:56.724Z,3.30
2018-06-11T18:16:25.089Z,3.20
2018-06-11T18:18:53.435Z,3.40
2018-06-11T18:21:21.827Z,2.90
2018-06-11T18:23:50.176Z,2.80
2018-06-11T18:26:18.550Z,2.97
2018-06-11T18:28:46.915Z,2.70
2018-06-11T18:31:15.311Z,3.43
2018-06-11T18:33:43.684Z,3.00
2018-06-11T18:36:12.055Z,3.87
2018-06-11T18:38:40.420Z,3.20
2018-06-11T18:41:08.821Z,3.60
2018-06-11T18:43:37.232Z,2.77
2018-06-11T18:46:05.630Z,3.13
2018-06-11T18:48:34.016Z,3.10
2018-06-11T18:51:02.414Z,3.30
2018-06-11T18:53:30.775Z,2.77
2018-06-11T18:55:59.144Z,3.10
2018-06-11T18:58:27.537Z,3.17
2018-06-11T19:00:55.979Z,3.60
2018-06-11T19:03:24.327Z,3.30
2018-06-11T19:05:55.336Z,3.80
2018-06-11T19:08:29.224Z,4.67
2018-06-11T19:11:02.312Z,4.20
2018-06-11T19:13:36.870Z,3.70
2018-06-11T19:16:07.296Z,4.20
2018-06-11T19:18:37.026Z,4.00
2018-06-11T19:21:10.636Z,4.10
2018-06-11T19:23:41.598Z,4.03
2018-06-11T19:26:10.590Z,3.37
2018-06-11T19:28:39.537Z,4.30
2018-06-11T19:31:10.815Z,4.37
2018-06-11T19:33:44.536Z,4.23
2018-06-11T19:36:17.204Z,4.37
2018-06-11T19:38:46.864Z,4.53
2018-06-11T19:41:16.828Z,4.83
2018-06-11T19:43:45.799Z,4.60
2018-06-11T19:46:15.713Z,4.63
2018-06-11T19:48:49.977Z,4.33
2018-06-11T19:51:20.213Z,4.27
2018-06-11T19:53:49.441Z,4.10
2018-06-11T19:56:18.581Z,3.97
2018-06-11T19:58:48.473Z,5.03
2018-06-11T20:01:33.660Z,4.80
2018-06-11T20:04:03.168Z,5.07
2018-06-11T20:06:33.648Z,4.70
2018-06-11T20:09:04.680Z,4.13
2018-06-11T20:11:34.301Z,4.03
2018-06-11T20:14:03.376Z,3.83
2018-06-11T20:16:33.380Z,3.93
2018-06-11T20:19:01.829Z,4.87
2018-06-11T20:21:34.442Z,4.33
2018-06-11T20:24:05.209Z,4.70
2018-06-11T20:26:34.136Z,6.00
2018-06-11T20:29:02.813Z,4.80
2018-06-11T20:31:31.753Z,7.33
2018-06-11T20:34:01.353Z,7.40
2018-06-11T20:36:30.860Z,6.80
2018-06-11T20:38:59.484Z,6.67
2018-06-11T20:41:28.680Z,8.47
2018-06-11T20:43:57.292Z,6.37
2018-06-11T20:46:27.576Z,6.70
2018-06-11T20:48:56.187Z,6.20
2018-06-11T20:51:25.664Z,5.90
2018-06-11T20:53:54.457Z,6.50
2018-06-11T20:56:23.693Z,5.70
2018-06-11T20:58:53.022Z,6.33
2018-06-11T21:01:21.453Z,6.17
2018-06-11T21:03:50.136Z,6.10
2018-06-11T21:06:18.560Z,5.00
2018-06-11T21:08:46.952Z,5.70
2018-06-11T21:11:19.155Z,4.90
2018-06-11T21:16:48.967Z,7.50
2018-06-11T21:19:19.693Z,6.10
2018-06-11T21:21:48.137Z,5.27
2018-06-11T21:24:16.585Z,5.27
2018-06-11T21:26:45.010Z,5.00
2018-06-11T21:29:13.427Z,4.10
2018-06-11T21:31:42.255Z,4.43
2018-06-11T21:34:10.869Z,4.63
2018-06-11T21:36:39.307Z,4.77
2018-06-11T21:39:08.580Z,5.00
2018-06-11T21:41:37.364Z,4.43
2018-06-11T21:44:06.028Z,4.27
2018-06-11T21:46:34.458Z,5.60
2018-06-11T21:49:03.027Z,5.70
2018-06-11T21:51:32.172Z,6.30
2018-06-11T21:54:00.650Z,5.00
2018-06-11T21:56:29.435Z,5.37
2018-06-11T21:58:58.862Z,5.33
2018-06-11T22:01:28.324Z,5.20
2018-06-11T22:03:57.849Z,5.03
2018-06-11T22:06:26.180Z,5.47
2018-06-11T22:08:55.316Z,5.17
2018-06-11T22:11:23.771Z,5.53
2018-06-11T22:13:53.576Z,6.43
2018-06-11T22:16:21.977Z,5.93
2018-06-11T22:18:50.436Z,6.13
2018-06-11T22:21:20.148Z,5.87
2018-06-11T22:23:48.591Z,4.63
2018-06-11T22:26:17.911Z,5.70
2018-06-11T22:28:46.368Z,5.30
2018-06-11T22:31:14.790Z,5.10
2018-06-11T22:33:43.232Z,4.63
2018-06-11T22:36:12.436Z,4.83
2018-06-11T22:38:40.880Z,4.83
2018-06-11T22:41:10.321Z,4.90
2018-06-11T22:43:38.752Z,4.13
2018-06-11T22:46:07.388Z,4.13
2018-06-11T22:48:35.539Z,4.63
2018-06-11T22:51:04.265Z,6.47
2018-06-11T22:53:33.267Z,5.13
2018-06-11T22:56:01.706Z,5.57
2018-06-11T22:58:30.624Z,3.83
2018-06-11T23:00:59.058Z,4.00
2018-06-11T23:03:28.404Z,4.60
2018-06-11T23:05:57.396Z,4.90
2018-06-11T23:08:25.956Z,4.47
2018-06-11T23:10:54.380Z,4.40
2018-06-11T23:13:22.824Z,4.97
2018-06-11T23:15:51.224Z,5.07
2018-06-11T23:18:19.637Z,4.40
2018-06-11T23:20:48.059Z,4.30
2018-06-11T23:23:16.479Z,5.27
2018-06-11T23:25:45.589Z,5.93
2018-06-11T23:28:15.360Z,4.93
2018-06-11T23:30:43.799Z,4.73
2018-06-11T23:33:12.234Z,4.50
2018-06-11T23:35:41.085Z,5.17
2018-06-11T23:38:09.512Z,5.93
2018-06-11T23:40:38.779Z,5.27
2018-06-11T23:43:07.195Z,4.27
2018-06-11T23:45:35.688Z,5.50
2018-06-11T23:48:05.099Z,5.30
2018-06-11T23:50:33.462Z,5.27
2018-06-11T23:53:01.893Z,5.27
2018-06-11T23:55:30.332Z,5.20
2018-06-11T23:57:59.025Z,4.80
